sensor_id;sensor_type;location;lat;lon;timestamp;P1;durP1;ratioP1;P2;durP2;ratioP2
77522;SDS011;66637;-29.628;-49.938;2024-03-23T00:53:08;26.75;;;4.43;;
77522;SDS011;66637;-29.628;-49.938;2024-03-23T00:55:37;30.70;;;3.88;;
77522;SDS011;66637;-29.628;-49.938;2024-03-23T00:58:07;14.48;;;2.85;;
77522;SDS011;66637;-29.628;-49.938;2024-03-23T01:00:37;14.50;;;2.10;;
77522;SDS011;66637;-29.628;-49.938;2024-03-23T01:03:05;18.48;;;2.55;;
77522;SDS011;66637;-29.628;-49.938;2024-03-23T01:05:33;23.73;;;3.78;;
77522;SDS011;66637;-29.628;-49.938;2024-03-23T01:08:01;15.85;;;4.07;;
77522;SDS011;66637;-29.628;-49.938;2024-03-23T01:10:30;21.30;;;4.13;;
77522;SDS011;66637;-29.628;-49.938;2024-03-23T01:12:58;27.33;;;5.30;;
77522;SDS011;66637;-29.628;-49.938;2024-03-23T01:15:27;15.13;;;2.33;;
77522;SDS011;66637;-29.628;-49.938;2024-03-23T01:17:56;29.30;;;4.35;;
77522;SDS011;66637;-29.628;-49.938;2024-03-23T01:20:25;25.05;;;3.88;;
77522;SDS011;66637;-29.628;-49.938;2024-03-23T01:22:54;30.98;;;4.15;;
77522;SDS011;66637;-29.628;-49.938;2024-03-23T01:25:23;24.13;;;4.68;;
77522;SDS011;66637;-29.628;-49.938;2024-03-23T01:27:51;10.20;;;2.17;;
77522;SDS011;66637;-29.628;-49.938;2024-03-23T01:30:19;18.55;;;4.47;;
77522;SDS011;66637;-29.628;-49.938;2024-03-23T01:32:49;25.73;;;4.63;;
77522;SDS011;66637;-29.628;-49.938;2024-03-23T01:35:18;11.25;;;2.90;;
77522;SDS011;66637;-29.628;-49.938;2024-03-23T01:37:47;14.35;;;3.53;;
77522;SDS011;66637;-29.628;-49.938;2024-03-23T01:40:16;24.10;;;4.18;;
77522;SDS011;66637;-29.628;-49.938;2024-03-23T01:42:57;12.07;;;2.70;;
77522;SDS011;66637;-29.628;-49.938;2024-03-23T01:45:27;27.20;;;4.22;;
77522;SDS011;66637;-29.628;-49.938;2024-03-23T01:47:56;22.77;;;3.28;;
77522;SDS011;66637;-29.628;-49.938;2024-03-23T01:50:24;18.35;;;4.30;;
77522;SDS011;66637;-29.628;-49.938;2024-03-23T01:52:55;12.05;;;1.92;;
77522;SDS011;66637;-29.628;-49.938;2024-03-23T01:55:24;37.67;;;5.78;;
77522;SDS011;66637;-29.628;-49.938;2024-03-23T01:57:56;18.00;;;1.75;;
77522;SDS011;66637;-29.628;-49.938;2024-03-23T02:00:24;18.02;;;2.67;;
77522;SDS011;66637;-29.628;-49.938;2024-03-23T02:02:55;28.35;;;5.43;;
77522;SDS011;66637;-29.628;-49.938;2024-03-23T02:05:24;21.98;;;3.13;;
77522;SDS011;66637;-29.628;-49.938;2024-03-23T02:07:52;37.55;;;4.32;;
77522;SDS011;66637;-29.628;-49.938;2024-03-23T02:10:22;32.60;;;4.65;;
77522;SDS011;66637;-29.628;-49.938;2024-03-23T02:12:51;32.60;;;4.63;;
77522;SDS011;66637;-29.628;-49.938;2024-03-23T02:15:19;29.00;;;3.67;;
77522;SDS011;66637;-29.628;-49.938;2024-03-23T02:17:48;29.58;;;3.42;;
77522;SDS011;66637;-29.628;-49.938;2024-03-23T02:20:17;28.48;;;3.47;;
77522;SDS011;66637;-29.628;-49.938;2024-03-23T02:22:45;47.97;;;5.53;;
77522;SDS011;66637;-29.628;-49.938;2024-03-23T02:27:43;43.80;;;5.45;;
77522;SDS011;66637;-29.628;-49.938;2024-03-23T02:30:11;21.83;;;3.50;;
77522;SDS011;66637;-29.628;-49.938;2024-03-23T02:32:40;25.42;;;3.10;;
77522;SDS011;66637;-29.628;-49.938;2024-03-23T02:35:09;30.23;;;4.20;;
77522;SDS011;66637;-29.628;-49.938;2024-03-23T02:37:39;29.20;;;4.32;;
77522;SDS011;66637;-29.628;-49.938;2024-03-23T02:40:07;45.10;;;5.68;;
77522;SDS011;66637;-29.628;-49.938;2024-03-23T02:42:36;30.83;;;5.20;;
77522;SDS011;66637;-29.628;-49.938;2024-03-23T02:45:04;27.00;;;2.90;;
77522;SDS011;66637;-29.628;-49.938;2024-03-23T02:47:32;38.33;;;6.90;;
77522;SDS011;66637;-29.628;-49.938;2024-03-23T02:50:01;40.45;;;5.10;;
77522;SDS011;66637;-29.628;-49.938;2024-03-23T02:52:30;23.27;;;3.00;;
77522;SDS011;66637;-29.628;-49.938;2024-03-23T02:55:03;29.00;;;4.10;;
77522;SDS011;66637;-29.628;-49.938;2024-03-23T02:57:32;34.60;;;3.45;;
77522;SDS011;66637;-29.628;-49.938;2024-03-23T03:00:05;23.67;;;2.80;;
77522;SDS011;66637;-29.628;-49.938;2024-03-23T03:02:36;25.27;;;3.38;;
77522;SDS011;66637;-29.628;-49.938;2024-03-23T03:05:08;26.40;;;2.63;;
77522;SDS011;66637;-29.628;-49.938;2024-03-23T03:07:38;38.00;;;4.75;;
77522;SDS011;66637;-29.628;-49.938;2024-03-23T03:10:09;26.63;;;2.70;;
77522;SDS011;66637;-29.628;-49.938;2024-03-23T03:12:41;28.25;;;3.78;;
77522;SDS011;66637;-29.628;-49.938;2024-03-23T03:15:11;23.50;;;3.42;;
77522;SDS011;66637;-29.628;-49.938;2024-03-23T03:17:45;45.10;;;5.30;;
77522;SDS011;66637;-29.628;-49.938;2024-03-23T03:20:14;46.60;;;6.95;;
77522;SDS011;66637;-29.628;-49.938;2024-03-23T03:22:47;69.03;;;7.75;;
77522;SDS011;66637;-29.628;-49.938;2024-03-23T03:25:16;29.25;;;3.80;;
77522;SDS011;66637;-29.628;-49.938;2024-03-23T03:27:45;9.38;;;1.90;;
77522;SDS011;66637;-29.628;-49.938;2024-03-23T03:30:13;25.13;;;3.53;;
77522;SDS011;66637;-29.628;-49.938;2024-03-23T03:32:43;22.85;;;3.28;;
77522;SDS011;66637;-29.628;-49.938;2024-03-23T03:35:11;25.45;;;3.67;;
77522;SDS011;66637;-29.628;-49.938;2024-03-23T03:37:41;32.90;;;4.15;;
77522;SDS011;66637;-29.628;-49.938;2024-03-23T03:40:10;31.70;;;4.18;;
77522;SDS011;66637;-29.628;-49.938;2024-03-23T03:42:40;35.45;;;4.38;;
77522;SDS011;66637;-29.628;-49.938;2024-03-23T03:45:09;23.30;;;3.35;;
77522;SDS011;66637;-29.628;-49.938;2024-03-23T03:47:38;24.48;;;3.15;;
77522;SDS011;66637;-29.628;-49.938;2024-03-23T03:50:06;24.70;;;3.47;;
77522;SDS011;66637;-29.628;-49.938;2024-03-23T03:52:34;34.20;;;4.43;;
77522;SDS011;66637;-29.628;-49.938;2024-03-23T03:57:40;23.75;;;3.08;;
77522;SDS011;66637;-29.628;-49.938;2024-03-23T04:00:09;24.75;;;2.33;;
77522;SDS011;66637;-29.628;-49.938;2024-03-23T04:02:41;38.45;;;5.15;;
77522;SDS011;66637;-29.628;-49.938;2024-03-23T04:05:09;22.23;;;2.70;;
77522;SDS011;66637;-29.628;-49.938;2024-03-23T04:07:38;36.70;;;4.88;;
77522;SDS011;66637;-29.628;-49.938;2024-03-23T04:10:07;43.63;;;4.53;;
77522;SDS011;66637;-29.628;-49.938;2024-03-23T04:12:37;43.97;;;4.63;;
77522;SDS011;66637;-29.628;-49.938;2024-03-23T04:15:05;44.38;;;4.53;;
77522;SDS011;66637;-29.628;-49.938;2024-03-23T04:17:35;36.05;;;3.95;;
77522;SDS011;66637;-29.628;-49.938;2024-03-23T04:22:37;25.83;;;3.58;;
77522;SDS011;66637;-29.628;-49.938;2024-03-23T04:25:06;37.40;;;4.70;;
77522;SDS011;66637;-29.628;-49.938;2024-03-23T04:27:35;37.15;;;3.83;;
77522;SDS011;66637;-29.628;-49.938;2024-03-23T04:30:05;54.17;;;6.50;;
77522;SDS011;66637;-29.628;-49.938;2024-03-23T04:32:41;24.60;;;3.28;;
77522;SDS011;66637;-29.628;-49.938;2024-03-23T04:35:11;36.33;;;5.05;;
77522;SDS011;66637;-29.628;-49.938;2024-03-23T04:37:49;49.75;;;6.13;;
77522;SDS011;66637;-29.628;-49.938;2024-03-23T04:40:29;28.77;;;3.95;;
77522;SDS011;66637;-29.628;-49.938;2024-03-23T04:45:29;50.08;;;5.32;;
77522;SDS011;66637;-29.628;-49.938;2024-03-23T04:47:59;41.13;;;5.35;;
77522;SDS011;66637;-29.628;-49.938;2024-03-23T04:50:28;53.50;;;5.88;;
77522;SDS011;66637;-29.628;-49.938;2024-03-23T04:52:56;42.88;;;5.03;;
77522;SDS011;66637;-29.628;-49.938;2024-03-23T04:55:26;52.92;;;7.47;;
77522;SDS011;66637;-29.628;-49.938;2024-03-23T05:00:23;39.13;;;4.40;;
77522;SDS011;66637;-29.628;-49.938;2024-03-23T05:02:53;29.35;;;3.58;;
77522;SDS011;66637;-29.628;-49.938;2024-03-23T05:05:21;24.13;;;2.95;;
77522;SDS011;66637;-29.628;-49.938;2024-03-23T05:07:50;41.40;;;4.97;;
77522;SDS011;66637;-29.628;-49.938;2024-03-23T05:10:20;34.40;;;4.03;;
77522;SDS011;66637;-29.628;-49.938;2024-03-23T05:12:48;31.10;;;3.72;;
77522;SDS011;66637;-29.628;-49.938;2024-03-23T05:15:16;37.90;;;5.15;;
77522;SDS011;66637;-29.628;-49.938;2024-03-23T05:17:45;39.28;;;4.63;;
77522;SDS011;66637;-29.628;-49.938;2024-03-23T05:20:14;32.13;;;3.22;;
77522;SDS011;66637;-29.628;-49.938;2024-03-23T05:22:44;42.63;;;5.00;;
77522;SDS011;66637;-29.628;-49.938;2024-03-23T05:25:14;29.60;;;3.72;;
77522;SDS011;66637;-29.628;-49.938;2024-03-23T05:27:43;28.88;;;3.45;;
77522;SDS011;66637;-29.628;-49.938;2024-03-23T05:30:12;27.58;;;3.65;;
77522;SDS011;66637;-29.628;-49.938;2024-03-23T05:32:41;25.30;;;2.78;;
77522;SDS011;66637;-29.628;-49.938;2024-03-23T05:35:09;45.30;;;5.95;;
77522;SDS011;66637;-29.628;-49.938;2024-03-23T05:37:39;25.25;;;3.13;;
77522;SDS011;66637;-29.628;-49.938;2024-03-23T05:40:07;22.42;;;2.70;;
77522;SDS011;66637;-29.628;-49.938;2024-03-23T05:42:36;30.85;;;3.65;;
77522;SDS011;66637;-29.628;-49.938;2024-03-23T05:45:05;31.98;;;2.88;;
77522;SDS011;66637;-29.628;-49.938;2024-03-23T05:47:34;29.25;;;2.63;;
77522;SDS011;66637;-29.628;-49.938;2024-03-23T05:50:02;32.85;;;4.22;;
77522;SDS011;66637;-29.628;-49.938;2024-03-23T05:52:32;27.60;;;3.50;;
77522;SDS011;66637;-29.628;-49.938;2024-03-23T05:55:01;27.23;;;2.97;;
77522;SDS011;66637;-29.628;-49.938;2024-03-23T05:57:31;29.52;;;3.58;;
77522;SDS011;66637;-29.628;-49.938;2024-03-23T06:00:01;29.40;;;3.65;;
77522;SDS011;66637;-29.628;-49.938;2024-03-23T06:02:38;32.17;;;4.07;;
77522;SDS011;66637;-29.628;-49.938;2024-03-23T06:05:07;23.45;;;2.40;;
77522;SDS011;66637;-29.628;-49.938;2024-03-23T06:07:39;42.72;;;4.82;;
77522;SDS011;66637;-29.628;-49.938;2024-03-23T06:10:10;32.65;;;4.28;;
77522;SDS011;66637;-29.628;-49.938;2024-03-23T06:12:40;42.50;;;3.80;;
77522;SDS011;66637;-29.628;-49.938;2024-03-23T06:15:11;31.15;;;4.13;;
77522;SDS011;66637;-29.628;-49.938;2024-03-23T06:17:39;33.97;;;4.53;;
77522;SDS011;66637;-29.628;-49.938;2024-03-23T06:20:10;18.33;;;3.17;;
77522;SDS011;66637;-29.628;-49.938;2024-03-23T06:22:40;27.48;;;3.35;;
77522;SDS011;66637;-29.628;-49.938;2024-03-23T06:25:09;39.10;;;4.95;;
77522;SDS011;66637;-29.628;-49.938;2024-03-23T06:27:43;34.15;;;3.88;;
77522;SDS011;66637;-29.628;-49.938;2024-03-23T06:30:11;44.03;;;4.85;;
77522;SDS011;66637;-29.628;-49.938;2024-03-23T06:32:45;39.05;;;4.88;;
77522;SDS011;66637;-29.628;-49.938;2024-03-23T06:35:14;30.75;;;4.35;;
77522;SDS011;66637;-29.628;-49.938;2024-03-23T06:37:42;48.15;;;4.82;;
77522;SDS011;66637;-29.628;-49.938;2024-03-23T06:42:39;29.30;;;3.15;;
77522;SDS011;66637;-29.628;-49.938;2024-03-23T06:45:07;29.98;;;4.63;;
77522;SDS011;66637;-29.628;-49.938;2024-03-23T06:47:35;45.40;;;4.85;;
77522;SDS011;66637;-29.628;-49.938;2024-03-23T06:50:04;35.05;;;4.10;;
77522;SDS011;66637;-29.628;-49.938;2024-03-23T06:52:33;46.70;;;5.35;;
77522;SDS011;66637;-29.628;-49.938;2024-03-23T06:57:32;40.85;;;4.75;;
77522;SDS011;66637;-29.628;-49.938;2024-03-23T07:00:00;38.42;;;4.28;;
77522;SDS011;66637;-29.628;-49.938;2024-03-23T07:02:28;41.13;;;4.40;;
77522;SDS011;66637;-29.628;-49.938;2024-03-23T07:07:26;25.75;;;2.45;;
77522;SDS011;66637;-29.628;-49.938;2024-03-23T07:09:55;27.75;;;3.75;;
77522;SDS011;66637;-29.628;-49.938;2024-03-23T07:12:24;45.42;;;4.97;;
77522;SDS011;66637;-29.628;-49.938;2024-03-23T07:14:52;32.90;;;3.78;;
77522;SDS011;66637;-29.628;-49.938;2024-03-23T07:17:21;31.17;;;3.72;;
77522;SDS011;66637;-29.628;-49.938;2024-03-23T07:19:50;20.63;;;2.13;;
77522;SDS011;66637;-29.628;-49.938;2024-03-23T07:22:19;44.35;;;4.03;;
77522;SDS011;66637;-29.628;-49.938;2024-03-23T07:24:47;25.83;;;3.00;;
77522;SDS011;66637;-29.628;-49.938;2024-03-23T07:27:16;28.35;;;3.03;;
77522;SDS011;66637;-29.628;-49.938;2024-03-23T07:29:47;30.88;;;3.63;;
77522;SDS011;66637;-29.628;-49.938;2024-03-23T07:32:17;33.58;;;3.13;;
77522;SDS011;66637;-29.628;-49.938;2024-03-23T07:34:50;23.05;;;2.80;;
77522;SDS011;66637;-29.628;-49.938;2024-03-23T07:37:18;19.92;;;2.38;;
77522;SDS011;66637;-29.628;-49.938;2024-03-23T07:39:47;21.48;;;2.38;;
77522;SDS011;66637;-29.628;-49.938;2024-03-23T07:42:15;31.23;;;4.47;;
77522;SDS011;66637;-29.628;-49.938;2024-03-23T07:47:13;45.17;;;4.65;;
77522;SDS011;66637;-29.628;-49.938;2024-03-23T07:49:41;38.60;;;3.60;;
77522;SDS011;66637;-29.628;-49.938;2024-03-23T07:52:10;20.88;;;3.15;;
77522;SDS011;66637;-29.628;-49.938;2024-03-23T07:54:38;30.85;;;4.13;;
77522;SDS011;66637;-29.628;-49.938;2024-03-23T07:57:07;50.53;;;5.07;;
77522;SDS011;66637;-29.628;-49.938;2024-03-23T07:59:37;33.22;;;3.60;;
77522;SDS011;66637;-29.628;-49.938;2024-03-23T08:02:06;21.58;;;2.53;;
77522;SDS011;66637;-29.628;-49.938;2024-03-23T08:04:35;24.63;;;2.88;;
77522;SDS011;66637;-29.628;-49.938;2024-03-23T08:07:03;28.63;;;3.25;;
77522;SDS011;66637;-29.628;-49.938;2024-03-23T08:09:31;27.88;;;3.47;;
77522;SDS011;66637;-29.628;-49.938;2024-03-23T08:12:01;22.63;;;2.65;;
77522;SDS011;66637;-29.628;-49.938;2024-03-23T08:14:29;31.70;;;4.22;;
77522;SDS011;66637;-29.628;-49.938;2024-03-23T08:16:57;25.17;;;3.53;;
77522;SDS011;66637;-29.628;-49.938;2024-03-23T08:19:26;34.90;;;4.40;;
77522;SDS011;66637;-29.628;-49.938;2024-03-23T08:21:54;38.50;;;4.75;;
77522;SDS011;66637;-29.628;-49.938;2024-03-23T08:24:22;24.52;;;3.08;;
77522;SDS011;66637;-29.628;-49.938;2024-03-23T08:26:50;32.60;;;4.07;;
77522;SDS011;66637;-29.628;-49.938;2024-03-23T08:29:18;50.17;;;5.38;;
77522;SDS011;66637;-29.628;-49.938;2024-03-23T08:31:48;41.70;;;5.30;;
77522;SDS011;66637;-29.628;-49.938;2024-03-23T08:34:17;42.20;;;4.68;;
77522;SDS011;66637;-29.628;-49.938;2024-03-23T08:36:45;59.70;;;7.22;;
77522;SDS011;66637;-29.628;-49.938;2024-03-23T08:39:15;43.08;;;5.35;;
77522;SDS011;66637;-29.628;-49.938;2024-03-23T08:41:44;29.58;;;3.30;;
77522;SDS011;66637;-29.628;-49.938;2024-03-23T08:44:13;29.88;;;3.67;;
77522;SDS011;66637;-29.628;-49.938;2024-03-23T08:46:41;35.72;;;4.35;;
77522;SDS011;66637;-29.628;-49.938;2024-03-23T08:49:09;48.50;;;5.10;;
77522;SDS011;66637;-29.628;-49.938;2024-03-23T08:51:38;46.75;;;5.32;;
77522;SDS011;66637;-29.628;-49.938;2024-03-23T08:54:06;32.17;;;3.78;;
77522;SDS011;66637;-29.628;-49.938;2024-03-23T08:56:35;35.92;;;4.13;;
77522;SDS011;66637;-29.628;-49.938;2024-03-23T08:59:03;31.75;;;4.70;;
77522;SDS011;66637;-29.628;-49.938;2024-03-23T09:01:31;27.60;;;3.35;;
77522;SDS011;66637;-29.628;-49.938;2024-03-23T09:04:00;10.40;;;1.60;;
77522;SDS011;66637;-29.628;-49.938;2024-03-23T09:06:28;7.78;;;1.15;;
77522;SDS011;66637;-29.628;-49.938;2024-03-23T09:08:56;7.63;;;1.48;;
77522;SDS011;66637;-29.628;-49.938;2024-03-23T09:11:24;9.80;;;0.80;;
77522;SDS011;66637;-29.628;-49.938;2024-03-23T09:13:53;10.35;;;1.20;;
77522;SDS011;66637;-29.628;-49.938;2024-03-23T09:16:23;12.40;;;0.93;;
77522;SDS011;66637;-29.628;-49.938;2024-03-23T09:18:51;6.28;;;0.73;;
77522;SDS011;66637;-29.628;-49.938;2024-03-23T09:21:20;6.15;;;0.60;;
77522;SDS011;66637;-29.628;-49.938;2024-03-23T09:23:48;4.90;;;0.70;;
77522;SDS011;66637;-29.628;-49.938;2024-03-23T09:26:16;6.18;;;0.68;;
77522;SDS011;66637;-29.628;-49.938;2024-03-23T09:28:44;4.03;;;0.63;;
77522;SDS011;66637;-29.628;-49.938;2024-03-23T09:31:17;6.28;;;0.98;;
77522;SDS011;66637;-29.628;-49.938;2024-03-23T09:33:46;7.00;;;1.02;;
77522;SDS011;66637;-29.628;-49.938;2024-03-23T09:36:18;5.55;;;0.93;;
77522;SDS011;66637;-29.628;-49.938;2024-03-23T09:38:48;7.03;;;1.10;;
77522;SDS011;66637;-29.628;-49.938;2024-03-23T09:41:16;9.98;;;0.80;;
77522;SDS011;66637;-29.628;-49.938;2024-03-23T09:43:44;7.30;;;1.25;;
77522;SDS011;66637;-29.628;-49.938;2024-03-23T09:46:15;6.63;;;0.85;;
77522;SDS011;66637;-29.628;-49.938;2024-03-23T09:48:45;7.40;;;0.82;;
77522;SDS011;66637;-29.628;-49.938;2024-03-23T09:51:14;5.07;;;1.00;;
77522;SDS011;66637;-29.628;-49.938;2024-03-23T09:53:44;7.00;;;0.93;;
77522;SDS011;66637;-29.628;-49.938;2024-03-23T09:56:12;8.25;;;0.95;;
77522;SDS011;66637;-29.628;-49.938;2024-03-23T09:58:41;6.68;;;0.90;;
77522;SDS011;66637;-29.628;-49.938;2024-03-23T10:01:09;7.60;;;0.90;;
77522;SDS011;66637;-29.628;-49.938;2024-03-23T10:03:42;5.68;;;0.75;;
77522;SDS011;66637;-29.628;-49.938;2024-03-23T10:06:13;7.38;;;0.73;;
77522;SDS011;66637;-29.628;-49.938;2024-03-23T10:08:48;7.45;;;0.82;;
77522;SDS011;66637;-29.628;-49.938;2024-03-23T10:11:19;9.88;;;0.95;;
77522;SDS011;66637;-29.628;-49.938;2024-03-23T10:13:48;8.77;;;0.82;;
77522;SDS011;66637;-29.628;-49.938;2024-03-23T10:16:21;5.07;;;0.85;;
77522;SDS011;66637;-29.628;-49.938;2024-03-23T10:18:52;5.70;;;0.57;;
77522;SDS011;66637;-29.628;-49.938;2024-03-23T10:21:20;6.60;;;0.90;;
77522;SDS011;66637;-29.628;-49.938;2024-03-23T10:23:49;5.57;;;0.63;;
77522;SDS011;66637;-29.628;-49.938;2024-03-23T10:26:19;9.48;;;1.08;;
77522;SDS011;66637;-29.628;-49.938;2024-03-23T10:28:52;9.00;;;1.00;;
77522;SDS011;66637;-29.628;-49.938;2024-03-23T10:31:22;7.93;;;1.02;;
77522;SDS011;66637;-29.628;-49.938;2024-03-23T10:33:52;7.65;;;1.17;;
77522;SDS011;66637;-29.628;-49.938;2024-03-23T10:36:24;8.07;;;0.82;;
77522;SDS011;66637;-29.628;-49.938;2024-03-23T10:38:57;5.15;;;0.70;;
77522;SDS011;66637;-29.628;-49.938;2024-03-23T10:41:28;11.55;;;1.00;;
77522;SDS011;66637;-29.628;-49.938;2024-03-23T10:44:01;6.32;;;0.75;;
77522;SDS011;66637;-29.628;-49.938;2024-03-23T10:46:31;7.47;;;0.60;;
77522;SDS011;66637;-29.628;-49.938;2024-03-23T10:48:59;8.30;;;1.20;;
77522;SDS011;66637;-29.628;-49.938;2024-03-23T10:53:56;7.05;;;0.80;;
77522;SDS011;66637;-29.628;-49.938;2024-03-23T10:56:27;7.00;;;0.77;;
77522;SDS011;66637;-29.628;-49.938;2024-03-23T10:59:01;7.90;;;0.90;;
77522;SDS011;66637;-29.628;-49.938;2024-03-23T11:01:31;8.43;;;1.30;;
77522;SDS011;66637;-29.628;-49.938;2024-03-23T11:03:59;13.13;;;1.63;;
77522;SDS011;66637;-29.628;-49.938;2024-03-23T11:06:34;7.22;;;1.00;;
77522;SDS011;66637;-29.628;-49.938;2024-03-23T11:14:54;7.78;;;0.82;;
77522;SDS011;66637;-29.628;-49.938;2024-03-23T11:17:24;6.47;;;0.75;;
77522;SDS011;66637;-29.628;-49.938;2024-03-23T11:19:57;6.95;;;0.98;;
77522;SDS011;66637;-29.628;-49.938;2024-03-23T11:22:42;5.13;;;0.75;;
77522;SDS011;66637;-29.628;-49.938;2024-03-23T11:27:43;5.60;;;0.75;;
77522;SDS011;66637;-29.628;-49.938;2024-03-23T11:30:16;7.32;;;0.80;;
77522;SDS011;66637;-29.628;-49.938;2024-03-23T11:32:55;8.23;;;0.85;;
77522;SDS011;66637;-29.628;-49.938;2024-03-23T11:35:28;5.38;;;0.80;;
77522;SDS011;66637;-29.628;-49.938;2024-03-23T11:38:01;4.57;;;1.00;;
77522;SDS011;66637;-29.628;-49.938;2024-03-23T11:40:31;5.75;;;1.23;;
77522;SDS011;66637;-29.628;-49.938;2024-03-23T11:43:05;6.10;;;0.77;;
77522;SDS011;66637;-29.628;-49.938;2024-03-23T11:45:42;9.80;;;1.02;;
77522;SDS011;66637;-29.628;-49.938;2024-03-23T11:48:13;2.58;;;0.60;;
77522;SDS011;66637;-29.628;-49.938;2024-03-23T11:50:48;5.25;;;0.85;;
77522;SDS011;66637;-29.628;-49.938;2024-03-23T11:53:22;6.07;;;0.73;;
77522;SDS011;66637;-29.628;-49.938;2024-03-23T11:55:52;5.43;;;1.10;;
77522;SDS011;66637;-29.628;-49.938;2024-03-23T11:58:26;6.82;;;0.82;;
77522;SDS011;66637;-29.628;-49.938;2024-03-23T12:00:58;5.38;;;0.80;;
77522;SDS011;66637;-29.628;-49.938;2024-03-23T12:03:28;6.55;;;0.90;;
77522;SDS011;66637;-29.628;-49.938;2024-03-23T12:08:34;3.30;;;0.50;;
77522;SDS011;66637;-29.628;-49.938;2024-03-23T12:11:12;4.78;;;0.70;;
77522;SDS011;66637;-29.628;-49.938;2024-03-23T12:13:43;6.32;;;1.05;;
77522;SDS011;66637;-29.628;-49.938;2024-03-23T12:18:43;8.23;;;0.95;;
77522;SDS011;66637;-29.628;-49.938;2024-03-23T12:21:12;7.18;;;1.00;;
77522;SDS011;66637;-29.628;-49.938;2024-03-23T12:23:41;7.40;;;0.80;;
77522;SDS011;66637;-29.628;-49.938;2024-03-23T12:26:12;6.97;;;0.77;;
77522;SDS011;66637;-29.628;-49.938;2024-03-23T12:28:41;5.63;;;0.70;;
77522;SDS011;66637;-29.628;-49.938;2024-03-23T12:31:10;5.55;;;0.82;;
77522;SDS011;66637;-29.628;-49.938;2024-03-23T12:33:38;11.50;;;0.90;;
77522;SDS011;66637;-29.628;-49.938;2024-03-23T12:36:06;3.85;;;0.80;;
77522;SDS011;66637;-29.628;-49.938;2024-03-23T12:38:36;3.88;;;0.68;;
77522;SDS011;66637;-29.628;-49.938;2024-03-23T12:41:04;4.22;;;0.50;;
77522;SDS011;66637;-29.628;-49.938;2024-03-23T12:43:32;6.10;;;0.90;;
77522;SDS011;66637;-29.628;-49.938;2024-03-23T12:46:03;7.85;;;0.80;;
77522;SDS011;66637;-29.628;-49.938;2024-03-23T12:48:31;5.30;;;0.88;;
77522;SDS011;66637;-29.628;-49.938;2024-03-23T12:50:59;5.97;;;0.85;;
77522;SDS011;66637;-29.628;-49.938;2024-03-23T12:53:27;6.63;;;0.70;;
77522;SDS011;66637;-29.628;-49.938;2024-03-23T12:55:57;7.28;;;1.10;;
77522;SDS011;66637;-29.628;-49.938;2024-03-23T12:58:25;7.70;;;1.33;;
77522;SDS011;66637;-29.628;-49.938;2024-03-23T13:00:53;5.00;;;0.98;;
77522;SDS011;66637;-29.628;-49.938;2024-03-23T13:03:23;5.20;;;1.17;;
77522;SDS011;66637;-29.628;-49.938;2024-03-23T13:05:52;7.22;;;1.08;;
77522;SDS011;66637;-29.628;-49.938;2024-03-23T13:08:20;22.20;;;3.08;;
77522;SDS011;66637;-29.628;-49.938;2024-03-23T13:10:53;24.45;;;3.03;;
77522;SDS011;66637;-29.628;-49.938;2024-03-23T13:13:22;21.35;;;2.47;;
77522;SDS011;66637;-29.628;-49.938;2024-03-23T13:15:50;51.03;;;6.93;;
77522;SDS011;66637;-29.628;-49.938;2024-03-23T13:18:20;47.63;;;4.97;;
77522;SDS011;66637;-29.628;-49.938;2024-03-23T13:20:49;39.38;;;4.32;;
77522;SDS011;66637;-29.628;-49.938;2024-03-23T13:23:18;40.40;;;5.35;;
77522;SDS011;66637;-29.628;-49.938;2024-03-23T13:25:52;37.05;;;5.40;;
77522;SDS011;66637;-29.628;-49.938;2024-03-23T13:28:22;38.70;;;5.35;;
77522;SDS011;66637;-29.628;-49.938;2024-03-23T13:30:55;36.42;;;4.68;;
77522;SDS011;66637;-29.628;-49.938;2024-03-23T13:33:31;32.55;;;4.75;;
77522;SDS011;66637;-29.628;-49.938;2024-03-23T13:36:00;42.20;;;5.00;;
77522;SDS011;66637;-29.628;-49.938;2024-03-23T13:38:31;32.47;;;4.47;;
77522;SDS011;66637;-29.628;-49.938;2024-03-23T13:41:01;40.00;;;5.88;;
77522;SDS011;66637;-29.628;-49.938;2024-03-23T13:43:33;31.40;;;4.63;;
77522;SDS011;66637;-29.628;-49.938;2024-03-23T13:46:01;25.50;;;3.60;;
77522;SDS011;66637;-29.628;-49.938;2024-03-23T13:48:29;37.40;;;4.60;;
77522;SDS011;66637;-29.628;-49.938;2024-03-23T13:50:59;33.75;;;4.88;;
77522;SDS011;66637;-29.628;-49.938;2024-03-23T13:53:29;38.22;;;5.00;;
77522;SDS011;66637;-29.628;-49.938;2024-03-23T13:56:01;44.03;;;5.40;;
77522;SDS011;66637;-29.628;-49.938;2024-03-23T13:58:31;43.53;;;5.75;;
77522;SDS011;66637;-29.628;-49.938;2024-03-23T14:01:00;29.58;;;4.47;;
77522;SDS011;66637;-29.628;-49.938;2024-03-23T14:03:29;40.75;;;4.88;;
77522;SDS011;66637;-29.628;-49.938;2024-03-23T14:06:00;28.92;;;3.92;;
77522;SDS011;66637;-29.628;-49.938;2024-03-23T14:08:31;28.27;;;4.43;;
77522;SDS011;66637;-29.628;-49.938;2024-03-23T14:11:00;25.42;;;4.13;;
77522;SDS011;66637;-29.628;-49.938;2024-03-23T14:13:30;24.85;;;4.32;;
77522;SDS011;66637;-29.628;-49.938;2024-03-23T14:15:59;29.13;;;4.80;;
77522;SDS011;66637;-29.628;-49.938;2024-03-23T14:18:29;34.72;;;4.28;;
77522;SDS011;66637;-29.628;-49.938;2024-03-23T14:21:05;34.35;;;3.92;;
77522;SDS011;66637;-29.628;-49.938;2024-03-23T14:23:34;29.05;;;4.18;;
77522;SDS011;66637;-29.628;-49.938;2024-03-23T14:26:02;38.70;;;4.93;;
77522;SDS011;66637;-29.628;-49.938;2024-03-23T14:28:31;37.83;;;5.43;;
77522;SDS011;66637;-29.628;-49.938;2024-03-23T14:33:28;26.77;;;4.75;;
77522;SDS011;66637;-29.628;-49.938;2024-03-23T14:35:57;32.33;;;4.88;;
77522;SDS011;66637;-29.628;-49.938;2024-03-23T14:38:26;38.78;;;5.25;;
77522;SDS011;66637;-29.628;-49.938;2024-03-23T14:40:59;24.17;;;4.15;;
77522;SDS011;66637;-29.628;-49.938;2024-03-23T14:43:30;32.20;;;4.18;;
77522;SDS011;66637;-29.628;-49.938;2024-03-23T14:46:06;33.22;;;5.97;;
77522;SDS011;66637;-29.628;-49.938;2024-03-23T14:48:35;41.28;;;7.10;;
77522;SDS011;66637;-29.628;-49.938;2024-03-23T14:51:05;56.80;;;6.85;;
77522;SDS011;66637;-29.628;-49.938;2024-03-23T14:53:41;44.95;;;6.68;;
77522;SDS011;66637;-29.628;-49.938;2024-03-23T14:56:19;41.58;;;5.97;;
77522;SDS011;66637;-29.628;-49.938;2024-03-23T14:58:52;42.83;;;6.10;;
77522;SDS011;66637;-29.628;-49.938;2024-03-23T15:01:25;34.95;;;5.22;;
77522;SDS011;66637;-29.628;-49.938;2024-03-23T15:03:55;24.77;;;5.70;;
77522;SDS011;66637;-29.628;-49.938;2024-03-23T15:06:24;27.95;;;4.40;;
77522;SDS011;66637;-29.628;-49.938;2024-03-23T15:08:53;27.63;;;4.35;;
77522;SDS011;66637;-29.628;-49.938;2024-03-23T15:11:24;39.13;;;5.18;;
77522;SDS011;66637;-29.628;-49.938;2024-03-23T15:13:55;28.20;;;4.70;;
77522;SDS011;66637;-29.628;-49.938;2024-03-23T15:16:30;33.97;;;4.43;;
77522;SDS011;66637;-29.628;-49.938;2024-03-23T15:18:59;39.58;;;6.88;;
77522;SDS011;66637;-29.628;-49.938;2024-03-23T15:21:28;34.90;;;4.97;;
77522;SDS011;66637;-29.628;-49.938;2024-03-23T15:23:56;32.05;;;4.63;;
77522;SDS011;66637;-29.628;-49.938;2024-03-23T15:26:25;35.83;;;5.35;;
77522;SDS011;66637;-29.628;-49.938;2024-03-23T15:28:54;25.70;;;3.35;;
77522;SDS011;66637;-29.628;-49.938;2024-03-23T15:31:26;29.58;;;4.47;;
77522;SDS011;66637;-29.628;-49.938;2024-03-23T15:33:55;33.83;;;4.03;;
77522;SDS011;66637;-29.628;-49.938;2024-03-23T15:36:25;40.08;;;5.22;;
77522;SDS011;66637;-29.628;-49.938;2024-03-23T15:38:53;31.42;;;3.75;;
77522;SDS011;66637;-29.628;-49.938;2024-03-23T15:41:23;37.22;;;6.05;;
77522;SDS011;66637;-29.628;-49.938;2024-03-23T15:43:52;27.20;;;4.15;;
77522;SDS011;66637;-29.628;-49.938;2024-03-23T15:46:22;31.35;;;3.63;;